sensor_id;sensor_type;location;lat;lon;timestamp;P1;durP1;ratioP1;P2;durP2;ratioP2
32876;SDS011;19226;51.600;8.034;2023-03-20T00:00:20;33.80;;;16.50;;
32876;SDS011;19226;51.600;8.034;2023-03-20T00:03:18;36.30;;;16.45;;
32876;SDS011;19226;51.600;8.034;2023-03-20T00:06:03;38.92;;;17.33;;
32876;SDS011;19226;51.600;8.034;2023-03-20T00:08:49;36.90;;;17.60;;
32876;SDS011;19226;51.600;8.034;2023-03-20T00:11:36;39.03;;;17.13;;
32876;SDS011;19226;51.600;8.034;2023-03-20T00:14:25;41.13;;;18.30;;
32876;SDS011;19226;51.600;8.034;2023-03-20T00:17:10;34.03;;;16.92;;
32876;SDS011;19226;51.600;8.034;2023-03-20T00:20:02;36.60;;;17.08;;
32876;SDS011;19226;51.600;8.034;2023-03-20T00:22:47;35.28;;;16.48;;
32876;SDS011;19226;51.600;8.034;2023-03-20T00:25:32;36.10;;;17.00;;
32876;SDS011;19226;51.600;8.034;2023-03-20T00:34:19;39.00;;;17.63;;
32876;SDS011;19226;51.600;8.034;2023-03-20T00:37:06;36.67;;;18.30;;
32876;SDS011;19226;51.600;8.034;2023-03-20T00:39:51;42.90;;;18.80;;
32876;SDS011;19226;51.600;8.034;2023-03-20T00:42:36;40.22;;;17.75;;
32876;SDS011;19226;51.600;8.034;2023-03-20T00:45:20;43.22;;;19.30;;
32876;SDS011;19226;51.600;8.034;2023-03-20T00:48:07;42.20;;;18.33;;
32876;SDS011;19226;51.600;8.034;2023-03-20T00:50:56;39.20;;;18.33;;
32876;SDS011;19226;51.600;8.034;2023-03-20T00:53:42;40.60;;;19.52;;
32876;SDS011;19226;51.600;8.034;2023-03-20T00:56:28;43.63;;;18.52;;
32876;SDS011;19226;51.600;8.034;2023-03-20T00:59:20;40.10;;;17.83;;
32876;SDS011;19226;51.600;8.034;2023-03-20T01:02:07;42.47;;;19.15;;
32876;SDS011;19226;51.600;8.034;2023-03-20T01:04:52;45.15;;;19.40;;
32876;SDS011;19226;51.600;8.034;2023-03-20T01:07:37;40.92;;;18.98;;
32876;SDS011;19226;51.600;8.034;2023-03-20T01:10:27;44.65;;;19.00;;
32876;SDS011;19226;51.600;8.034;2023-03-20T01:13:18;42.13;;;18.65;;
32876;SDS011;19226;51.600;8.034;2023-03-20T01:16:05;42.35;;;19.65;;
32876;SDS011;19226;51.600;8.034;2023-03-20T01:19:00;46.88;;;18.90;;
32876;SDS011;19226;51.600;8.034;2023-03-20T01:21:44;39.70;;;18.75;;
32876;SDS011;19226;51.600;8.034;2023-03-20T01:24:29;40.47;;;18.35;;
32876;SDS011;19226;51.600;8.034;2023-03-20T01:27:14;44.50;;;20.17;;
32876;SDS011;19226;51.600;8.034;2023-03-20T01:30:00;45.72;;;19.08;;
32876;SDS011;19226;51.600;8.034;2023-03-20T01:32:45;43.00;;;18.95;;
32876;SDS011;19226;51.600;8.034;2023-03-20T01:35:31;44.75;;;19.60;;
32876;SDS011;19226;51.600;8.034;2023-03-20T01:38:21;51.33;;;23.70;;
32876;SDS011;19226;51.600;8.034;2023-03-20T01:41:18;58.28;;;27.50;;
32876;SDS011;19226;51.600;8.034;2023-03-20T01:44:16;68.70;;;30.92;;
32876;SDS011;19226;51.600;8.034;2023-03-20T01:47:15;70.85;;;32.00;;
32876;SDS011;19226;51.600;8.034;2023-03-20T01:53:15;68.53;;;31.35;;
32876;SDS011;19226;51.600;8.034;2023-03-20T01:56:08;73.43;;;34.42;;
32876;SDS011;19226;51.600;8.034;2023-03-20T01:59:02;76.05;;;34.47;;
32876;SDS011;19226;51.600;8.034;2023-03-20T02:01:52;80.68;;;36.22;;
32876;SDS011;19226;51.600;8.034;2023-03-20T02:04:40;79.95;;;32.42;;
32876;SDS011;19226;51.600;8.034;2023-03-20T02:07:31;74.53;;;33.78;;
32876;SDS011;19226;51.600;8.034;2023-03-20T02:10:20;72.07;;;32.15;;
32876;SDS011;19226;51.600;8.034;2023-03-20T02:13:14;73.30;;;32.92;;
32876;SDS011;19226;51.600;8.034;2023-03-20T02:16:04;69.63;;;33.30;;
32876;SDS011;19226;51.600;8.034;2023-03-20T02:19:48;63.60;;;32.20;;
32876;SDS011;19226;51.600;8.034;2023-03-20T02:26:24;58.42;;;30.63;;
32876;SDS011;19226;51.600;8.034;2023-03-20T02:30:02;62.03;;;32.78;;
32876;SDS011;19226;51.600;8.034;2023-03-20T02:41:29;62.65;;;31.10;;
32876;SDS011;19226;51.600;8.034;2023-03-20T02:47:31;62.53;;;29.50;;
32876;SDS011;19226;51.600;8.034;2023-03-20T02:50:36;61.53;;;31.00;;
32876;SDS011;19226;51.600;8.034;2023-03-20T02:53:31;59.33;;;31.02;;
32876;SDS011;19226;51.600;8.034;2023-03-20T02:56:44;58.47;;;30.20;;
32876;SDS011;19226;51.600;8.034;2023-03-20T03:02:28;56.47;;;28.52;;
32876;SDS011;19226;51.600;8.034;2023-03-20T03:09:09;47.60;;;25.65;;
32876;SDS011;19226;51.600;8.034;2023-03-20T03:12:20;52.80;;;27.02;;
32876;SDS011;19226;51.600;8.034;2023-03-20T03:15:19;51.97;;;26.38;;
32876;SDS011;19226;51.600;8.034;2023-03-20T03:18:16;56.13;;;28.48;;
32876;SDS011;19226;51.600;8.034;2023-03-20T03:21:04;51.22;;;27.45;;
32876;SDS011;19226;51.600;8.034;2023-03-20T03:23:54;53.83;;;27.60;;
32876;SDS011;19226;51.600;8.034;2023-03-20T03:26:41;51.97;;;27.23;;
32876;SDS011;19226;51.600;8.034;2023-03-20T03:29:30;52.30;;;27.70;;
32876;SDS011;19226;51.600;8.034;2023-03-20T03:32:21;50.65;;;26.42;;
32876;SDS011;19226;51.600;8.034;2023-03-20T03:35:19;50.08;;;26.33;;
32876;SDS011;19226;51.600;8.034;2023-03-20T03:38:24;49.80;;;26.85;;
32876;SDS011;19226;51.600;8.034;2023-03-20T03:41:21;49.22;;;26.23;;
32876;SDS011;19226;51.600;8.034;2023-03-20T03:44:29;50.20;;;26.85;;
32876;SDS011;19226;51.600;8.034;2023-03-20T03:50:40;51.78;;;26.67;;
32876;SDS011;19226;51.600;8.034;2023-03-20T03:53:33;53.40;;;28.20;;
32876;SDS011;19226;51.600;8.034;2023-03-20T03:56:25;49.45;;;28.08;;
32876;SDS011;19226;51.600;8.034;2023-03-20T03:59:13;54.80;;;29.02;;
32876;SDS011;19226;51.600;8.034;2023-03-20T04:02:13;51.55;;;29.50;;
32876;SDS011;19226;51.600;8.034;2023-03-20T04:05:00;49.00;;;27.52;;
32876;SDS011;19226;51.600;8.034;2023-03-20T04:07:51;53.03;;;27.52;;
32876;SDS011;19226;51.600;8.034;2023-03-20T04:10:38;55.10;;;28.15;;
32876;SDS011;19226;51.600;8.034;2023-03-20T04:13:25;54.58;;;27.90;;
32876;SDS011;19226;51.600;8.034;2023-03-20T04:16:13;50.08;;;27.45;;
32876;SDS011;19226;51.600;8.034;2023-03-20T04:18:57;49.80;;;27.42;;
32876;SDS011;19226;51.600;8.034;2023-03-20T04:21:42;46.55;;;26.10;;
32876;SDS011;19226;51.600;8.034;2023-03-20T04:24:28;49.20;;;26.60;;
32876;SDS011;19226;51.600;8.034;2023-03-20T04:27:13;47.40;;;25.10;;
32876;SDS011;19226;51.600;8.034;2023-03-20T04:29:57;46.83;;;23.70;;
32876;SDS011;19226;51.600;8.034;2023-03-20T04:33:05;44.88;;;23.58;;
32876;SDS011;19226;51.600;8.034;2023-03-20T04:36:02;46.92;;;23.40;;
32876;SDS011;19226;51.600;8.034;2023-03-20T04:38:47;43.30;;;22.95;;
32876;SDS011;19226;51.600;8.034;2023-03-20T04:41:31;40.53;;;20.95;;
32876;SDS011;19226;51.600;8.034;2023-03-20T04:44:16;42.40;;;21.45;;
32876;SDS011;19226;51.600;8.034;2023-03-20T04:47:02;49.33;;;22.05;;
32876;SDS011;19226;51.600;8.034;2023-03-20T04:49:50;43.08;;;20.83;;
32876;SDS011;19226;51.600;8.034;2023-03-20T04:52:36;45.08;;;20.38;;
32876;SDS011;19226;51.600;8.034;2023-03-20T04:55:20;46.55;;;20.90;;
32876;SDS011;19226;51.600;8.034;2023-03-20T04:58:05;42.97;;;19.15;;
32876;SDS011;19226;51.600;8.034;2023-03-20T05:00:50;34.13;;;17.40;;
32876;SDS011;19226;51.600;8.034;2023-03-20T05:03:34;36.97;;;18.80;;
32876;SDS011;19226;51.600;8.034;2023-03-20T05:06:19;32.40;;;17.38;;
32876;SDS011;19226;51.600;8.034;2023-03-20T05:09:04;37.75;;;17.35;;
32876;SDS011;19226;51.600;8.034;2023-03-20T05:11:50;35.38;;;16.77;;
32876;SDS011;19226;51.600;8.034;2023-03-20T05:15:00;28.42;;;16.70;;
32876;SDS011;19226;51.600;8.034;2023-03-20T05:18:04;27.42;;;15.55;;
32876;SDS011;19226;51.600;8.034;2023-03-20T05:21:10;31.08;;;15.35;;
32876;SDS011;19226;51.600;8.034;2023-03-20T05:24:13;28.73;;;16.17;;
32876;SDS011;19226;51.600;8.034;2023-03-20T05:27:09;24.38;;;14.55;;
32876;SDS011;19226;51.600;8.034;2023-03-20T05:30:13;22.48;;;14.05;;
32876;SDS011;19226;51.600;8.034;2023-03-20T05:33:17;28.60;;;14.98;;
32876;SDS011;19226;51.600;8.034;2023-03-20T05:36:11;24.42;;;14.00;;
32876;SDS011;19226;51.600;8.034;2023-03-20T05:39:25;26.42;;;14.73;;
32876;SDS011;19226;51.600;8.034;2023-03-20T05:42:28;23.25;;;13.77;;
32876;SDS011;19226;51.600;8.034;2023-03-20T05:45:33;23.33;;;14.73;;
32876;SDS011;19226;51.600;8.034;2023-03-20T05:48:36;26.20;;;13.20;;
32876;SDS011;19226;51.600;8.034;2023-03-20T05:51:46;22.92;;;13.73;;
32876;SDS011;19226;51.600;8.034;2023-03-20T05:54:40;25.95;;;13.93;;
32876;SDS011;19226;51.600;8.034;2023-03-20T05:57:35;20.95;;;12.70;;
32876;SDS011;19226;51.600;8.034;2023-03-20T06:00:42;23.63;;;13.20;;
32876;SDS011;19226;51.600;8.034;2023-03-20T06:03:49;20.63;;;12.07;;
32876;SDS011;19226;51.600;8.034;2023-03-20T06:06:49;24.33;;;13.63;;
32876;SDS011;19226;51.600;8.034;2023-03-20T06:09:33;23.30;;;13.20;;
32876;SDS011;19226;51.600;8.034;2023-03-20T06:12:22;20.48;;;11.63;;
32876;SDS011;19226;51.600;8.034;2023-03-20T06:15:07;22.30;;;12.30;;
32876;SDS011;19226;51.600;8.034;2023-03-20T06:17:56;23.98;;;12.20;;
32876;SDS011;19226;51.600;8.034;2023-03-20T06:20:42;22.95;;;13.00;;
32876;SDS011;19226;51.600;8.034;2023-03-20T06:23:26;22.85;;;12.65;;
32876;SDS011;19226;51.600;8.034;2023-03-20T06:26:11;20.75;;;12.30;;
32876;SDS011;19226;51.600;8.034;2023-03-20T06:29:09;21.30;;;13.02;;
32876;SDS011;19226;51.600;8.034;2023-03-20T06:31:54;27.02;;;14.15;;
32876;SDS011;19226;51.600;8.034;2023-03-20T06:34:48;29.35;;;14.48;;
32876;SDS011;19226;51.600;8.034;2023-03-20T06:37:33;25.95;;;14.65;;
32876;SDS011;19226;51.600;8.034;2023-03-20T06:40:25;28.30;;;14.88;;
32876;SDS011;19226;51.600;8.034;2023-03-20T06:43:13;26.45;;;14.95;;
32876;SDS011;19226;51.600;8.034;2023-03-20T06:46:04;27.20;;;13.95;;
32876;SDS011;19226;51.600;8.034;2023-03-20T06:48:50;28.63;;;14.75;;
32876;SDS011;19226;51.600;8.034;2023-03-20T06:51:35;25.65;;;14.20;;
32876;SDS011;19226;51.600;8.034;2023-03-20T06:54:22;27.35;;;14.52;;
32876;SDS011;19226;51.600;8.034;2023-03-20T06:57:08;29.00;;;14.65;;
32876;SDS011;19226;51.600;8.034;2023-03-20T06:59:52;30.27;;;15.13;;
32876;SDS011;19226;51.600;8.034;2023-03-20T07:02:37;26.58;;;14.35;;
32876;SDS011;19226;51.600;8.034;2023-03-20T07:05:21;23.98;;;14.05;;
32876;SDS011;19226;51.600;8.034;2023-03-20T07:08:06;24.00;;;13.90;;
32876;SDS011;19226;51.600;8.034;2023-03-20T07:10:50;31.70;;;14.23;;
32876;SDS011;19226;51.600;8.034;2023-03-20T07:13:35;26.77;;;15.05;;
32876;SDS011;19226;51.600;8.034;2023-03-20T07:16:30;21.65;;;13.68;;
32876;SDS011;19226;51.600;8.034;2023-03-20T07:19:15;25.27;;;15.05;;
32876;SDS011;19226;51.600;8.034;2023-03-20T07:22:04;24.75;;;13.52;;
32876;SDS011;19226;51.600;8.034;2023-03-20T07:24:55;26.50;;;13.85;;
32876;SDS011;19226;51.600;8.034;2023-03-20T07:27:42;21.52;;;12.63;;
32876;SDS011;19226;51.600;8.034;2023-03-20T07:30:33;21.63;;;13.27;;
32876;SDS011;19226;51.600;8.034;2023-03-20T07:33:17;26.98;;;14.75;;
32876;SDS011;19226;51.600;8.034;2023-03-20T07:36:03;23.05;;;13.50;;
32876;SDS011;19226;51.600;8.034;2023-03-20T07:38:49;25.77;;;14.45;;
32876;SDS011;19226;51.600;8.034;2023-03-20T07:41:35;26.52;;;14.15;;
32876;SDS011;19226;51.600;8.034;2023-03-20T07:44:23;26.85;;;14.27;;
32876;SDS011;19226;51.600;8.034;2023-03-20T07:47:10;26.75;;;14.43;;
32876;SDS011;19226;51.600;8.034;2023-03-20T07:49:54;24.05;;;13.68;;
32876;SDS011;19226;51.600;8.034;2023-03-20T07:52:40;26.95;;;14.93;;
32876;SDS011;19226;51.600;8.034;2023-03-20T07:55:32;26.23;;;14.20;;
32876;SDS011;19226;51.600;8.034;2023-03-20T07:58:16;21.95;;;13.30;;
32876;SDS011;19226;51.600;8.034;2023-03-20T08:01:01;23.80;;;14.45;;
32876;SDS011;19226;51.600;8.034;2023-03-20T08:03:46;23.58;;;14.13;;
32876;SDS011;19226;51.600;8.034;2023-03-20T08:06:31;23.45;;;13.70;;
32876;SDS011;19226;51.600;8.034;2023-03-20T08:09:16;24.73;;;13.80;;
32876;SDS011;19226;51.600;8.034;2023-03-20T08:12:00;24.17;;;13.20;;
32876;SDS011;19226;51.600;8.034;2023-03-20T08:14:45;20.60;;;12.60;;
32876;SDS011;19226;51.600;8.034;2023-03-20T08:17:29;21.52;;;13.00;;
32876;SDS011;19226;51.600;8.034;2023-03-20T08:20:14;20.25;;;12.45;;
32876;SDS011;19226;51.600;8.034;2023-03-20T08:22:59;19.80;;;12.07;;
32876;SDS011;19226;51.600;8.034;2023-03-20T08:25:47;20.27;;;12.38;;
32876;SDS011;19226;51.600;8.034;2023-03-20T08:28:34;21.42;;;11.95;;
32876;SDS011;19226;51.600;8.034;2023-03-20T08:31:18;21.92;;;10.45;;
32876;SDS011;19226;51.600;8.034;2023-03-20T08:34:03;16.70;;;9.70;;
32876;SDS011;19226;51.600;8.034;2023-03-20T08:36:48;13.38;;;8.48;;
32876;SDS011;19226;51.600;8.034;2023-03-20T08:39:32;15.75;;;8.80;;
32876;SDS011;19226;51.600;8.034;2023-03-20T08:42:17;13.30;;;7.80;;
32876;SDS011;19226;51.600;8.034;2023-03-20T08:45:01;11.73;;;7.97;;
32876;SDS011;19226;51.600;8.034;2023-03-20T08:47:46;14.15;;;9.27;;
32876;SDS011;19226;51.600;8.034;2023-03-20T08:50:31;11.73;;;7.03;;
32876;SDS011;19226;51.600;8.034;2023-03-20T08:53:16;16.27;;;7.43;;
32876;SDS011;19226;51.600;8.034;2023-03-20T08:56:00;14.75;;;7.05;;
32876;SDS011;19226;51.600;8.034;2023-03-20T08:58:45;13.90;;;7.82;;
32876;SDS011;19226;51.600;8.034;2023-03-20T09:01:30;13.90;;;6.75;;
32876;SDS011;19226;51.600;8.034;2023-03-20T09:04:15;13.02;;;7.30;;
32876;SDS011;19226;51.600;8.034;2023-03-20T09:07:00;16.55;;;6.75;;
32876;SDS011;19226;51.600;8.034;2023-03-20T09:09:45;12.90;;;6.72;;
32876;SDS011;19226;51.600;8.034;2023-03-20T09:12:30;12.90;;;7.00;;
32876;SDS011;19226;51.600;8.034;2023-03-20T09:15:17;13.10;;;6.10;;
32876;SDS011;19226;51.600;8.034;2023-03-20T09:18:02;11.70;;;6.60;;
32876;SDS011;19226;51.600;8.034;2023-03-20T09:20:47;7.65;;;6.13;;
32876;SDS011;19226;51.600;8.034;2023-03-20T09:23:32;17.45;;;7.30;;
32876;SDS011;19226;51.600;8.034;2023-03-20T09:26:18;11.13;;;6.88;;
32876;SDS011;19226;51.600;8.034;2023-03-20T09:29:03;11.98;;;6.50;;
32876;SDS011;19226;51.600;8.034;2023-03-20T09:31:48;13.52;;;7.05;;
32876;SDS011;19226;51.600;8.034;2023-03-20T09:34:33;11.00;;;6.03;;
32876;SDS011;19226;51.600;8.034;2023-03-20T09:37:17;13.23;;;6.45;;
32876;SDS011;19226;51.600;8.034;2023-03-20T09:40:02;9.25;;;6.32;;
32876;SDS011;19226;51.600;8.034;2023-03-20T09:51:55;12.40;;;5.78;;
32876;SDS011;19226;51.600;8.034;2023-03-20T09:54:43;13.23;;;6.20;;
32876;SDS011;19226;51.600;8.034;2023-03-20T09:57:36;12.25;;;5.65;;
32876;SDS011;19226;51.600;8.034;2023-03-20T10:00:23;12.63;;;5.57;;
32876;SDS011;19226;51.600;8.034;2023-03-20T10:03:14;11.60;;;5.53;;
32876;SDS011;19226;51.600;8.034;2023-03-20T10:06:06;10.98;;;5.57;;
32876;SDS011;19226;51.600;8.034;2023-03-20T10:08:56;11.10;;;5.43;;
32876;SDS011;19226;51.600;8.034;2023-03-20T10:11:57;9.35;;;6.07;;
32876;SDS011;19226;51.600;8.034;2023-03-20T10:17:54;9.98;;;5.70;;
32876;SDS011;19226;51.600;8.034;2023-03-20T10:24:02;17.17;;;6.53;;
32876;SDS011;19226;51.600;8.034;2023-03-20T10:26:49;12.52;;;6.45;;
32876;SDS011;19226;51.600;8.034;2023-03-20T10:32:41;10.25;;;6.57;;
32876;SDS011;19226;51.600;8.034;2023-03-20T10:35:41;14.60;;;7.43;;
32876;SDS011;19226;51.600;8.034;2023-03-20T10:39:09;11.38;;;7.05;;
32876;SDS011;19226;51.600;8.034;2023-03-20T10:41:52;11.35;;;6.60;;
32876;SDS011;19226;51.600;8.034;2023-03-20T10:44:40;15.10;;;6.53;;
32876;SDS011;19226;51.600;8.034;2023-03-20T10:47:29;15.70;;;7.57;;
32876;SDS011;19226;51.600;8.034;2023-03-20T10:50:29;13.43;;;7.00;;
32876;SDS011;19226;51.600;8.034;2023-03-20T10:53:23;11.30;;;6.32;;
32876;SDS011;19226;51.600;8.034;2023-03-20T11:02:11;18.35;;;6.97;;
32876;SDS011;19226;51.600;8.034;2023-03-20T11:05:19;13.52;;;7.13;;
32876;SDS011;19226;51.600;8.034;2023-03-20T11:08:10;11.68;;;6.78;;
32876;SDS011;19226;51.600;8.034;2023-03-20T11:10:57;12.15;;;6.45;;
32876;SDS011;19226;51.600;8.034;2023-03-20T11:13:44;12.52;;;6.32;;
32876;SDS011;19226;51.600;8.034;2023-03-20T11:16:29;8.45;;;5.68;;
32876;SDS011;19226;51.600;8.034;2023-03-20T11:19:18;14.38;;;7.25;;
32876;SDS011;19226;51.600;8.034;2023-03-20T11:25:19;12.50;;;5.88;;
32876;SDS011;19226;51.600;8.034;2023-03-20T11:28:30;11.93;;;5.90;;
32876;SDS011;19226;51.600;8.034;2023-03-20T11:31:37;8.02;;;4.53;;
32876;SDS011;19226;51.600;8.034;2023-03-20T11:34:25;18.20;;;6.53;;
32876;SDS011;19226;51.600;8.034;2023-03-20T11:37:24;9.45;;;4.50;;
32876;SDS011;19226;51.600;8.034;2023-03-20T11:45:57;8.05;;;3.90;;
32876;SDS011;19226;51.600;8.034;2023-03-20T11:48:44;7.07;;;4.18;;
32876;SDS011;19226;51.600;8.034;2023-03-20T11:51:29;6.93;;;4.35;;
32876;SDS011;19226;51.600;8.034;2023-03-20T11:54:21;7.15;;;4.10;;
32876;SDS011;19226;51.600;8.034;2023-03-20T11:57:10;6.20;;;3.45;;
32876;SDS011;19226;51.600;8.034;2023-03-20T12:00:20;18.40;;;5.45;;
32876;SDS011;19226;51.600;8.034;2023-03-20T12:03:52;13.65;;;4.50;;
32876;SDS011;19226;51.600;8.034;2023-03-20T12:06:38;5.82;;;3.25;;
32876;SDS011;19226;51.600;8.034;2023-03-20T12:18:49;8.82;;;4.28;;
32876;SDS011;19226;51.600;8.034;2023-03-20T12:21:38;10.55;;;4.13;;
32876;SDS011;19226;51.600;8.034;2023-03-20T12:27:27;6.63;;;3.60;;
32876;SDS011;19226;51.600;8.034;2023-03-20T12:33:10;9.00;;;3.55;;
32876;SDS011;19226;51.600;8.034;2023-03-20T12:36:01;5.95;;;3.45;;
32876;SDS011;19226;51.600;8.034;2023-03-20T12:38:49;9.68;;;4.50;;
32876;SDS011;19226;51.600;8.034;2023-03-20T12:41:53;10.65;;;3.47;;
32876;SDS011;19226;51.600;8.034;2023-03-20T12:44:47;9.38;;;3.65;;
32876;SDS011;19226;51.600;8.034;2023-03-20T12:54:02;10.57;;;4.07;;
32876;SDS011;19226;51.600;8.034;2023-03-20T13:00:17;6.65;;;3.20;;
32876;SDS011;19226;51.600;8.034;2023-03-20T13:03:27;5.50;;;3.92;;
32876;SDS011;19226;51.600;8.034;2023-03-20T13:06:21;6.78;;;2.55;;
32876;SDS011;19226;51.600;8.034;2023-03-20T13:15:04;6.03;;;2.97;;
32876;SDS011;19226;51.600;8.034;2023-03-20T13:24:40;7.20;;;2.80;;
32876;SDS011;19226;51.600;8.034;2023-03-20T13:27:36;5.00;;;1.90;;
32876;SDS011;19226;51.600;8.034;2023-03-20T13:39:48;4.07;;;1.80;;
32876;SDS011;19226;51.600;8.034;2023-03-20T13:46:25;6.72;;;2.40;;
32876;SDS011;19226;51.600;8.034;2023-03-20T14:04:35;6.95;;;2.88;;
32876;SDS011;19226;51.600;8.034;2023-03-20T14:13:05;8.20;;;2.42;;
32876;SDS011;19226;51.600;8.034;2023-03-20T14:15:59;5.95;;;2.65;;
32876;SDS011;19226;51.600;8.034;2023-03-20T14:18:46;7.95;;;2.25;;
32876;SDS011;19226;51.600;8.034;2023-03-20T14:21:47;5.47;;;2.67;;
32876;SDS011;19226;51.600;8.034;2023-03-20T14:24:35;6.50;;;2.80;;
32876;SDS011;19226;51.600;8.034;2023-03-20T14:27:21;6.38;;;3.00;;
32876;SDS011;19226;51.600;8.034;2023-03-20T14:36:11;9.10;;;4.25;;
32876;SDS011;19226;51.600;8.034;2023-03-20T14:39:04;9.38;;;4.65;;
32876;SDS011;19226;51.600;8.034;2023-03-20T14:42:03;6.07;;;4.15;;
32876;SDS011;19226;51.600;8.034;2023-03-20T14:48:05;5.93;;;4.13;;
32876;SDS011;19226;51.600;8.034;2023-03-20T14:51:23;11.82;;;4.90;;
32876;SDS011;19226;51.600;8.034;2023-03-20T14:57:17;8.57;;;4.75;;
32876;SDS011;19226;51.600;8.034;2023-03-20T15:00:20;7.57;;;5.13;;
32876;SDS011;19226;51.600;8.034;2023-03-20T15:03:08;14.95;;;5.90;;
32876;SDS011;19226;51.600;8.034;2023-03-20T15:06:00;12.68;;;5.68;;
32876;SDS011;19226;51.600;8.034;2023-03-20T15:08:53;8.60;;;6.40;;
32876;SDS011;19226;51.600;8.034;2023-03-20T15:11:41;9.52;;;6.07;;
32876;SDS011;19226;51.600;8.034;2023-03-20T15:14:26;10.85;;;5.95;;
32876;SDS011;19226;51.600;8.034;2023-03-20T15:17:21;9.95;;;5.60;;
32876;SDS011;19226;51.600;8.034;2023-03-20T15:23:00;13.05;;;6.18;;
32876;SDS011;19226;51.600;8.034;2023-03-20T15:25:46;11.02;;;6.75;;
32876;SDS011;19226;51.600;8.034;2023-03-20T15:28:32;9.38;;;6.53;;
32876;SDS011;19226;51.600;8.034;2023-03-20T15:31:22;7.77;;;6.97;;
32876;SDS011;19226;51.600;8.034;2023-03-20T15:34:18;12.02;;;6.93;;
32876;SDS011;19226;51.600;8.034;2023-03-20T15:37:05;7.65;;;6.85;;
32876;SDS011;19226;51.600;8.034;2023-03-20T15:39:53;11.27;;;7.85;;
32876;SDS011;19226;51.600;8.034;2023-03-20T15:42:42;11.88;;;7.85;;
32876;SDS011;19226;51.600;8.034;2023-03-20T15:45:34;10.95;;;7.45;;
32876;SDS011;19226;51.600;8.034;2023-03-20T15:48:20;9.73;;;7.78;;
32876;SDS011;19226;51.600;8.034;2023-03-20T15:51:07;9.40;;;7.78;;
32876;SDS011;19226;51.600;8.034;2023-03-20T15:53:53;11.63;;;8.13;;
32876;SDS011;19226;51.600;8.034;2023-03-20T15:56:38;11.23;;;7.85;;
32876;SDS011;19226;51.600;8.034;2023-03-20T15:59:28;11.32;;;7.35;;
32876;SDS011;19226;51.600;8.034;2023-03-20T16:02:15;13.40;;;7.30;;
32876;SDS011;19226;51.600;8.034;2023-03-20T16:05:00;9.32;;;6.93;;
32876;SDS011;19226;51.600;8.034;2023-03-20T16:07:44;9.70;;;6.70;;
32876;SDS011;19226;51.600;8.034;2023-03-20T16:10:31;10.13;;;6.35;;
32876;SDS011;19226;51.600;8.034;2023-03-20T16:13:20;8.93;;;6.57;;
32876;SDS011;19226;51.600;8.034;2023-03-20T16:16:08;7.78;;;5.70;;
32876;SDS011;19226;51.600;8.034;2023-03-20T16:18:57;9.82;;;5.55;;
32876;SDS011;19226;51.600;8.034;2023-03-20T16:21:49;8.63;;;5.30;;
32876;SDS011;19226;51.600;8.034;2023-03-20T16:24:47;9.30;;;5.15;;
32876;SDS011;19226;51.600;8.034;2023-03-20T16:27:34;8.25;;;6.13;;
32876;SDS011;19226;51.600;8.034;2023-03-20T16:30:26;11.27;;;6.18;;
32876;SDS011;19226;51.600;8.034;2023-03-20T16:33:14;10.77;;;5.90;;
32876;SDS011;19226;51.600;8.034;2023-03-20T16:36:00;10.35;;;6.10;;
32876;SDS011;19226;51.600;8.034;2023-03-20T16:39:00;10.27;;;5.22;;
32876;SDS011;19226;51.600;8.034;2023-03-20T16:44:55;8.85;;;5.63;;
32876;SDS011;19226;51.600;8.034;2023-03-20T16:47:40;8.27;;;5.10;;
32876;SDS011;19226;51.600;8.034;2023-03-20T16:50:32;5.65;;;5.07;;
32876;SDS011;19226;51.600;8.034;2023-03-20T16:53:19;7.05;;;4.82;;
32876;SDS011;19226;51.600;8.034;2023-03-20T16:56:03;10.43;;;5.00;;
32876;SDS011;19226;51.600;8.034;2023-03-20T16:58:52;9.90;;;4.20;;
32876;SDS011;19226;51.600;8.034;2023-03-20T17:01:40;6.85;;;4.45;;
32876;SDS011;19226;51.600;8.034;2023-03-20T17:04:35;5.75;;;4.13;;
32876;SDS011;19226;51.600;8.034;2023-03-20T17:07:22;9.52;;;5.80;;
32876;SDS011;19226;51.600;8.034;2023-03-20T17:13:03;4.40;;;4.00;;
32876;SDS011;19226;51.600;8.034;2023-03-20T17:15:49;6.68;;;4.22;;
32876;SDS011;19226;51.600;8.034;2023-03-20T17:18:34;9.75;;;3.88;;
32876;SDS011;19226;51.600;8.034;2023-03-20T17:21:19;6.63;;;4.38;;
32876;SDS011;19226;51.600;8.034;2023-03-20T17:24:04;13.43;;;4.13;;
32876;SDS011;19226;51.600;8.034;2023-03-20T17:26:52;6.07;;;4.07;;
32876;SDS011;19226;51.600;8.034;2023-03-20T17:29:39;10.98;;;5.00;;
32876;SDS011;19226;51.600;8.034;2023-03-20T17:32:24;13.05;;;4.78;;
32876;SDS011;19226;51.600;8.034;2023-03-20T17:35:08;9.73;;;5.20;;
32876;SDS011;19226;51.600;8.034;2023-03-20T17:37:53;11.32;;;4.50;;
32876;SDS011;19226;51.600;8.034;2023-03-20T17:40:38;5.18;;;4.30;;
32876;SDS011;19226;51.600;8.034;2023-03-20T17:43:22;10.00;;;4.93;;
32876;SDS011;19226;51.600;8.034;2023-03-20T17:46:14;7.72;;;5.50;;
32876;SDS011;19226;51.600;8.034;2023-03-20T17:49:14;13.80;;;5.72;;
32876;SDS011;19226;51.600;8.034;2023-03-20T17:51:59;11.65;;;6.40;;
32876;SDS011;19226;51.600;8.034;2023-03-20T17:54:44;10.93;;;5.78;;
32876;SDS011;19226;51.600;8.034;2023-03-20T17:57:33;11.45;;;6.32;;
32876;SDS011;19226;51.600;8.034;2023-03-20T18:00:20;9.98;;;5.82;;
32876;SDS011;19226;51.600;8.034;2023-03-20T18:03:06;13.13;;;6.10;;
32876;SDS011;19226;51.600;8.034;2023-03-20T18:05:51;15.15;;;6.93;;
32876;SDS011;19226;51.600;8.034;2023-03-20T18:08:35;10.38;;;6.53;;
32876;SDS011;19226;51.600;8.034;2023-03-20T18:11:21;9.98;;;5.47;;
32876;SDS011;19226;51.600;8.034;2023-03-20T18:14:06;12.57;;;5.88;;
32876;SDS011;19226;51.600;8.034;2023-03-20T18:16:50;12.13;;;6.25;;
32876;SDS011;19226;51.600;8.034;2023-03-20T18:19:35;12.32;;;6.72;;
32876;SDS011;19226;51.600;8.034;2023-03-20T18:22:20;13.65;;;6.60;;
32876;SDS011;19226;51.600;8.034;2023-03-20T18:25:04;10.38;;;5.32;;
32876;SDS011;19226;51.600;8.034;2023-03-20T18:27:49;11.60;;;5.07;;
32876;SDS011;19226;51.600;8.034;2023-03-20T18:30:35;8.30;;;4.50;;
32876;SDS011;19226;51.600;8.034;2023-03-20T18:33:20;14.35;;;4.60;;
32876;SDS011;19226;51.600;8.034;2023-03-20T18:36:19;9.02;;;5.50;;
32876;SDS011;19226;51.600;8.034;2023-03-20T18:39:05;6.85;;;3.95;;
32876;SDS011;19226;51.600;8.034;2023-03-20T18:41:50;8.98;;;5.07;;
32876;SDS011;19226;51.600;8.034;2023-03-20T18:44:35;10.02;;;5.03;;
32876;SDS011;19226;51.600;8.034;2023-03-20T18:47:19;11.00;;;5.80;;
32876;SDS011;19226;51.600;8.034;2023-03-20T18:50:04;13.30;;;5.47;;
32876;SDS011;19226;51.600;8.034;2023-03-20T18:53:02;11.10;;;5.00;;
32876;SDS011;19226;51.600;8.034;2023-03-20T18:55:48;12.55;;;4.63;;
32876;SDS011;19226;51.600;8.034;2023-03-20T18:58:32;8.38;;;4.53;;
32876;SDS011;19226;51.600;8.034;2023-03-20T19:01:17;9.27;;;4.25;;
32876;SDS011;19226;51.600;8.034;2023-03-20T19:04:02;13.18;;;4.78;;
32876;SDS011;19226;51.600;8.034;2023-03-20T19:06:47;13.18;;;4.28;;
32876;SDS011;19226;51.600;8.034;2023-03-20T19:09:31;14.02;;;5.07;;
32876;SDS011;19226;51.600;8.034;2023-03-20T19:12:16;12.63;;;4.55;;
32876;SDS011;19226;51.600;8.034;2023-03-20T19:15:01;14.98;;;5.22;;
32876;SDS011;19226;51.600;8.034;2023-03-20T19:17:45;8.60;;;4.10;;
32876;SDS011;19226;51.600;8.034;2023-03-20T19:20:35;8.73;;;3.67;;
32876;SDS011;19226;51.600;8.034;2023-03-20T19:23:21;14.88;;;4.00;;
32876;SDS011;19226;51.600;8.034;2023-03-20T19:26:12;15.88;;;4.63;;